createdAt,value
2023-02-05T00:00:52.939Z,0.34
2023-02-05T00:03:24.484Z,0.36
2023-02-05T00:05:52.560Z,0.45
2023-02-05T00:08:20.727Z,0.44
2023-02-05T00:10:53.062Z,0.48
2023-02-05T00:13:21.723Z,0.47
2023-02-05T00:15:49.788Z,0.44
2023-02-05T00:18:18.342Z,0.44
2023-02-05T00:20:46.345Z,0.39
2023-02-05T00:23:14.968Z,0.47
2023-02-05T00:25:44.637Z,0.47
2023-02-05T00:28:13.031Z,0.40
2023-02-05T00:30:42.460Z,0.34
2023-02-05T00:33:10.714Z,0.31
2023-02-05T00:35:39.132Z,0.37
2023-02-05T00:38:08.326Z,0.39
2023-02-05T00:40:36.841Z,0.47
2023-02-05T00:43:04.701Z,0.42
2023-02-05T00:45:35.966Z,0.45
2023-02-05T00:48:07.497Z,0.47
2023-02-05T00:50:36.215Z,0.48
2023-02-05T00:53:04.130Z,0.49
2023-02-05T00:55:32.404Z,0.45
2023-02-05T00:58:01.718Z,0.46
2023-02-05T01:00:30.029Z,0.44
2023-02-05T01:02:58.387Z,0.48
2023-02-05T01:05:26.668Z,0.52
2023-02-05T01:07:57.936Z,0.53
2023-02-05T01:10:26.794Z,0.56
2023-02-05T01:12:54.965Z,0.58
2023-02-05T01:15:23.375Z,0.61
2023-02-05T01:17:51.946Z,0.64
2023-02-05T01:20:20.741Z,0.60
2023-02-05T01:22:49.849Z,0.63
2023-02-05T01:25:19.410Z,0.59
2023-02-05T01:27:47.692Z,0.47
2023-02-05T01:30:17.482Z,0.43
2023-02-05T01:32:46.592Z,0.45
2023-02-05T01:35:16.228Z,0.43
2023-02-05T01:37:44.780Z,0.42
2023-02-05T01:40:17.177Z,0.45
2023-02-05T01:42:51.215Z,0.37
2023-02-05T01:45:22.614Z,0.46
2023-02-05T01:48:04.456Z,0.40
2023-02-05T01:50:41.402Z,0.39
2023-02-05T01:53:13.652Z,0.42
2023-02-05T01:55:58.368Z,0.40
2023-02-05T01:58:30.348Z,0.41
2023-02-05T02:00:58.772Z,0.36
2023-02-05T02:03:29.151Z,0.35
2023-02-05T02:05:58.000Z,0.40
2023-02-05T02:08:26.597Z,0.39
2023-02-05T02:10:56.777Z,0.41
2023-02-05T02:13:26.633Z,0.42
2023-02-05T02:15:54.939Z,0.45
2023-02-05T02:18:27.935Z,0.48
2023-02-05T02:21:07.951Z,0.48
2023-02-05T02:23:58.662Z,0.42
2023-02-05T02:27:05.766Z,0.36
2023-02-05T02:29:41.557Z,0.38
2023-02-05T02:32:22.048Z,0.43
2023-02-05T02:34:54.791Z,0.42
2023-02-05T02:37:36.388Z,0.37
2023-02-05T02:40:12.562Z,0.35
2023-02-05T02:42:44.446Z,0.39
2023-02-05T02:45:13.687Z,0.39
2023-02-05T02:47:47.146Z,0.36
2023-02-05T02:50:20.638Z,0.39
2023-02-05T02:52:50.332Z,0.34
2023-02-05T02:55:20.664Z,0.23
2023-02-05T02:57:52.243Z,0.25
2023-02-05T03:00:25.671Z,0.24
2023-02-05T03:02:56.481Z,0.19
2023-02-05T03:05:25.803Z,0.21
2023-02-05T03:07:58.160Z,0.21
2023-02-05T03:10:35.197Z,0.18
2023-02-05T03:13:05.431Z,0.18
2023-02-05T03:15:33.833Z,0.20
2023-02-05T03:18:04.947Z,0.14
2023-02-05T03:20:42.126Z,0.13
2023-02-05T03:23:10.326Z,0.06
2023-02-05T03:25:38.841Z,0.04
2023-02-05T03:28:07.709Z,0.04
2023-02-05T03:31:04.824Z,0.05
2023-02-05T03:33:45.045Z,0.03
2023-02-05T03:36:26.225Z,0.01
2023-02-05T03:39:02.700Z,0.02
2023-02-05T03:41:50.752Z,0.06
2023-02-05T03:45:13.805Z,0.03
2023-02-05T03:48:12.564Z,0.04
2023-02-05T03:50:56.095Z,0.03
2023-02-05T03:53:48.007Z,0.02
2023-02-05T03:56:26.938Z,-0.01
2023-02-05T03:58:57.540Z,0.03
2023-02-05T04:01:26.690Z,0.02
2023-02-05T04:03:57.501Z,-0.03
2023-02-05T04:06:25.289Z,-0.02
2023-02-05T04:08:53.284Z,-0.03
2023-02-05T04:11:22.965Z,-0.05
2023-02-05T04:13:52.179Z,-0.05
2023-02-05T04:16:20.262Z,-0.01
2023-02-05T04:18:48.446Z,0.01
2023-02-05T04:21:16.378Z,0.03
2023-02-05T04:23:44.583Z,-0.02
2023-02-05T04:26:12.978Z,-0.05
2023-02-05T04:28:41.000Z,-0.15
2023-02-05T04:31:10.010Z,-0.14
2023-02-05T04:33:40.599Z,-0.16
2023-02-05T04:36:09.556Z,-0.24
2023-02-05T04:38:38.378Z,-0.27
2023-02-05T04:41:06.828Z,-0.28
2023-02-05T04:43:35.399Z,-0.32
2023-02-05T04:46:10.329Z,-0.29
2023-02-05T04:48:39.351Z,-0.28
2023-02-05T04:51:11.981Z,-0.30
2023-02-05T04:53:40.809Z,-0.26
2023-02-05T04:56:14.571Z,-0.21
2023-02-05T04:58:43.610Z,-0.23
2023-02-05T05:01:16.206Z,-0.24
2023-02-05T05:03:46.125Z,-0.22
2023-02-05T05:06:14.723Z,-0.29
2023-02-05T05:08:42.996Z,-0.26
2023-02-05T05:11:19.580Z,-0.24
2023-02-05T05:13:50.075Z,-0.28
2023-02-05T05:16:19.069Z,-0.29
2023-02-05T05:18:47.776Z,-0.25
2023-02-05T05:21:16.946Z,-0.23
2023-02-05T05:23:45.321Z,-0.22
2023-02-05T05:26:13.908Z,-0.18
2023-02-05T05:28:41.763Z,-0.16
2023-02-05T05:31:19.990Z,-0.16
2023-02-05T05:33:48.756Z,-0.18
2023-02-05T05:36:16.896Z,-0.24
2023-02-05T05:38:45.071Z,-0.26
2023-02-05T05:41:40.325Z,-0.22
2023-02-05T05:44:09.034Z,-0.17
2023-02-05T05:46:37.306Z,-0.14
2023-02-05T05:49:05.751Z,-0.06
2023-02-05T05:51:34.276Z,0.02
2023-02-05T05:54:02.393Z,0.04
2023-02-05T05:56:31.123Z,0.08
2023-02-05T05:58:59.934Z,0.11
2023-02-05T06:01:28.584Z,0.11
2023-02-05T06:03:56.676Z,0.14
2023-02-05T06:06:24.774Z,0.11
2023-02-05T06:08:52.871Z,0.12
2023-02-05T06:11:20.716Z,0.11
2023-02-05T06:13:50.058Z,0.12
2023-02-05T06:16:18.346Z,0.09
2023-02-05T06:18:48.512Z,0.10
2023-02-05T06:21:17.014Z,0.10
2023-02-05T06:23:46.236Z,0.05
2023-02-05T06:26:15.328Z,0.02
2023-02-05T06:28:43.617Z,0.06
2023-02-05T06:31:12.038Z,0.04
2023-02-05T06:33:40.265Z,0.10
2023-02-05T06:36:08.861Z,0.13
2023-02-05T06:38:37.099Z,0.12
2023-02-05T06:41:05.140Z,0.19
2023-02-05T06:43:33.329Z,0.19
2023-02-05T06:46:21.713Z,0.24
2023-02-05T06:48:49.718Z,0.30
2023-02-05T06:51:17.902Z,0.30
2023-02-05T06:53:47.147Z,0.35
2023-02-05T06:56:15.481Z,0.38
2023-02-05T06:58:43.617Z,0.44
2023-02-05T07:01:11.841Z,0.43
2023-02-05T07:03:39.871Z,0.37
2023-02-05T07:06:08.424Z,0.53
2023-02-05T07:08:36.677Z,0.60
2023-02-05T07:11:05.561Z,0.62
2023-02-05T07:13:33.788Z,0.63
2023-02-05T07:16:06.145Z,0.44
2023-02-05T07:18:34.809Z,0.52
2023-02-05T07:21:08.013Z,0.54
2023-02-05T07:23:36.884Z,0.56
2023-02-05T07:26:15.709Z,0.49
2023-02-05T07:28:44.866Z,0.51
2023-02-05T07:31:18.204Z,0.56
2023-02-05T07:33:48.033Z,0.66
2023-02-05T07:36:18.072Z,0.70
2023-02-05T07:38:47.698Z,0.78
2023-02-05T07:41:18.714Z,0.88
2023-02-05T07:43:46.892Z,0.98
2023-02-05T07:46:15.727Z,1.00
2023-02-05T07:48:44.280Z,1.10
2023-02-05T07:51:23.240Z,1.13
2023-02-05T07:53:52.722Z,1.15
2023-02-05T07:56:21.980Z,1.14
2023-02-05T07:58:50.077Z,1.14
2023-02-05T08:01:18.272Z,1.16
2023-02-05T08:03:46.930Z,1.14
2023-02-05T08:06:16.261Z,1.30
2023-02-05T08:08:44.719Z,1.33
2023-02-05T08:11:17.341Z,1.41
2023-02-05T08:13:49.027Z,1.41
2023-02-05T08:16:17.941Z,1.31
2023-02-05T08:18:50.860Z,1.36
2023-02-05T08:21:22.158Z,1.51
2023-02-05T08:23:50.600Z,1.61
2023-02-05T08:26:19.287Z,1.57
2023-02-05T08:28:50.073Z,1.75
2023-02-05T08:31:19.254Z,1.77
2023-02-05T08:33:48.104Z,1.61
2023-02-05T08:36:16.868Z,1.67
2023-02-05T08:38:45.021Z,1.61
2023-02-05T08:41:13.267Z,1.60
2023-02-05T08:43:49.132Z,1.64
2023-02-05T08:46:20.539Z,1.74
2023-02-05T08:48:49.305Z,1.57
2023-02-05T08:51:19.757Z,1.58
2023-02-05T08:53:47.707Z,1.32
2023-02-05T08:56:16.974Z,1.18
2023-02-05T08:58:48.886Z,1.10
2023-02-05T09:01:17.722Z,1.10
2023-02-05T09:03:46.204Z,1.13
2023-02-05T09:06:15.920Z,1.32
2023-02-05T09:08:44.276Z,1.35
2023-02-05T09:11:13.750Z,1.40
2023-02-05T09:13:44.709Z,1.44
2023-02-05T09:16:15.128Z,1.53
2023-02-05T09:18:44.036Z,1.59
2023-02-05T09:21:14.076Z,1.77
2023-02-05T09:23:42.430Z,1.86
2023-02-05T09:26:11.492Z,1.69
2023-02-05T09:28:40.973Z,1.83
2023-02-05T09:31:16.887Z,1.87
2023-02-05T09:33:46.592Z,1.50
2023-02-05T09:36:19.942Z,1.57
2023-02-05T09:38:48.555Z,1.38
2023-02-05T09:41:29.233Z,1.30
2023-02-05T09:44:29.744Z,1.39
2023-02-05T09:47:25.079Z,1.56
2023-02-05T09:50:21.875Z,1.77
2023-02-05T09:52:51.728Z,1.92
2023-02-05T09:55:35.153Z,1.89
2023-02-05T09:58:16.027Z,1.87
2023-02-05T10:00:50.095Z,2.03
2023-02-05T10:03:30.736Z,2.09
2023-02-05T10:06:08.095Z,2.07
2023-02-05T10:09:13.773Z,2.32
2023-02-05T10:12:03.701Z,2.31
2023-02-05T10:14:58.221Z,2.39
2023-02-05T10:17:32.434Z,2.30
2023-02-05T10:20:26.607Z,2.19
2023-02-05T10:23:15.983Z,1.84
2023-02-05T10:25:55.904Z,1.82
2023-02-05T10:28:36.624Z,1.94
2023-02-05T10:31:43.918Z,2.04
2023-02-05T10:34:20.907Z,2.03
2023-02-05T10:36:52.851Z,1.93
2023-02-05T10:39:26.629Z,1.57
2023-02-05T10:42:06.982Z,1.40
2023-02-05T10:44:43.917Z,1.31
2023-02-05T10:47:19.113Z,1.18
2023-02-05T10:49:56.837Z,0.98
2023-02-05T10:52:24.875Z,0.86
2023-02-05T10:54:53.215Z,0.87
2023-02-05T10:57:23.221Z,0.67
2023-02-05T11:00:00.310Z,0.63
2023-02-05T11:02:59.332Z,0.59
2023-02-05T11:05:35.191Z,0.55
2023-02-05T11:08:04.323Z,0.46
2023-02-05T11:10:34.995Z,0.55
2023-02-05T11:13:21.761Z,0.58
2023-02-05T11:16:01.173Z,0.64
2023-02-05T11:18:36.619Z,0.59
2023-02-05T11:21:09.009Z,0.54
2023-02-05T11:23:41.273Z,0.57
2023-02-05T11:26:10.622Z,0.55
2023-02-05T11:28:42.615Z,0.62
2023-02-05T11:31:21.903Z,0.66
2023-02-05T11:33:50.677Z,0.52
2023-02-05T11:36:27.418Z,0.52
2023-02-05T11:38:59.801Z,0.56
2023-02-05T11:41:52.222Z,0.45
2023-02-05T11:44:25.448Z,0.42
2023-02-05T11:46:58.091Z,0.45
2023-02-05T11:49:37.728Z,0.62
2023-02-05T11:52:11.563Z,0.83
2023-02-05T11:54:46.338Z,0.84
2023-02-05T11:57:20.362Z,0.90
2023-02-05T11:59:58.442Z,1.02
2023-02-05T12:02:33.849Z,1.12
2023-02-05T12:05:17.210Z,1.13
2023-02-05T12:07:56.996Z,1.40
2023-02-05T12:10:38.792Z,1.51
2023-02-05T12:13:10.732Z,1.56
2023-02-05T12:16:11.916Z,1.43
2023-02-05T12:19:15.116Z,1.33
2023-02-05T12:22:21.344Z,1.44
2023-02-05T12:25:19.914Z,1.52
2023-02-05T12:28:01.314Z,1.40
2023-02-05T12:30:47.792Z,1.40
2023-02-05T12:33:51.913Z,1.43
2023-02-05T12:36:29.858Z,1.56
2023-02-05T12:39:26.498Z,1.61
2023-02-05T12:41:58.031Z,1.68
2023-02-05T12:44:46.089Z,1.81
2023-02-05T12:47:45.612Z,1.68
2023-02-05T12:50:40.477Z,1.84
2023-02-05T12:53:08.398Z,1.83
2023-02-05T12:55:49.164Z,1.84
2023-02-05T12:58:20.024Z,1.90
2023-02-05T13:00:56.621Z,1.76
2023-02-05T13:03:33.982Z,1.72
2023-02-05T13:06:12.668Z,1.65
2023-02-05T13:08:51.289Z,1.60
2023-02-05T13:11:29.163Z,1.50
2023-02-05T13:14:03.085Z,1.19
2023-02-05T13:16:46.423Z,1.05
2023-02-05T13:19:24.084Z,0.90
2023-02-05T13:22:12.123Z,0.74
2023-02-05T13:25:17.832Z,0.70
2023-02-05T13:28:23.389Z,0.72
2023-02-05T13:30:55.613Z,0.60
2023-02-05T13:33:23.700Z,0.62
2023-02-05T13:36:09.962Z,0.60
2023-02-05T13:38:58.284Z,0.41
2023-02-05T13:42:00.738Z,0.37
2023-02-05T13:44:53.366Z,0.45
2023-02-05T13:47:24.508Z,0.48
2023-02-05T13:50:11.276Z,0.44
2023-02-05T13:52:45.343Z,0.29
2023-02-05T13:55:16.928Z,0.26
2023-02-05T13:58:11.844Z,0.30
2023-02-05T14:00:42.543Z,0.30
2023-02-05T14:03:26.840Z,0.28
2023-02-05T14:05:55.060Z,0.27
2023-02-05T14:08:27.569Z,0.26
2023-02-05T14:11:02.744Z,0.20
2023-02-05T14:13:34.650Z,0.15
2023-02-05T14:16:38.121Z,0.11
2023-02-05T14:19:15.154Z,0.09
2023-02-05T14:21:46.136Z,0.04
2023-02-05T14:24:29.114Z,-0.05
2023-02-05T14:27:01.056Z,-0.02
2023-02-05T14:29:43.075Z,0.03
2023-02-05T14:32:40.168Z,-0.14
2023-02-05T14:35:32.309Z,-0.16
2023-02-05T14:38:03.063Z,-0.18
2023-02-05T14:40:37.372Z,-0.23
2023-02-05T14:43:46.901Z,-0.16
2023-02-05T14:46:33.459Z,-0.23
2023-02-05T14:49:03.571Z,-0.19
2023-02-05T14:51:51.338Z,-0.21
2023-02-05T14:54:25.703Z,-0.19
2023-02-05T14:57:19.969Z,-0.13
2023-02-05T14:59:57.836Z,-0.17
2023-02-05T15:03:03.963Z,-0.12
2023-02-05T15:05:45.919Z,-0.23
2023-02-05T15:08:35.517Z,-0.37
2023-02-05T15:11:42.930Z,-0.31
2023-02-05T15:14:27.360Z,-0.29
2023-02-05T15:17:35.698Z,-0.37
2023-02-05T15:20:34.240Z,-0.37
2023-02-05T15:23:06.302Z,-0.37
2023-02-05T15:25:44.748Z,-0.37
2023-02-05T15:28:33.092Z,-0.36
2023-02-05T15:31:15.144Z,-0.35
2023-02-05T15:33:53.074Z,-0.33
2023-02-05T15:36:27.740Z,-0.33
2023-02-05T15:39:25.203Z,-0.34
2023-02-05T15:41:56.788Z,-0.38
2023-02-05T15:44:30.748Z,-0.43
2023-02-05T15:47:03.708Z,-0.51
2023-02-05T15:49:50.372Z,-0.46
2023-02-05T15:52:22.641Z,-0.49
2023-02-05T15:54:53.551Z,-0.52
2023-02-05T15:57:27.239Z,-0.44
2023-02-05T15:59:56.821Z,-0.43
2023-02-05T16:02:27.729Z,-0.42
2023-02-05T16:05:08.096Z,-0.46
2023-02-05T16:07:41.473Z,-0.41
2023-02-05T16:10:22.524Z,-0.46
2023-02-05T16:13:04.745Z,-0.52
2023-02-05T16:15:40.977Z,-0.45
2023-02-05T16:18:25.581Z,-0.49
2023-02-05T16:20:57.927Z,-0.49
2023-02-05T16:23:30.412Z,-0.53
2023-02-05T16:26:02.643Z,-0.59
2023-02-05T16:29:01.684Z,-0.50
2023-02-05T16:34:18.983Z,-0.60
2023-02-05T16:36:50.591Z,-0.61
2023-02-05T16:39:27.797Z,-0.57
2023-02-05T16:42:07.075Z,-0.71
2023-02-05T16:44:40.880Z,-0.68
2023-02-05T16:47:18.045Z,-0.66
2023-02-05T16:49:49.328Z,-0.59
2023-02-05T16:52:25.895Z,-0.56
2023-02-05T16:54:54.327Z,-0.63
2023-02-05T16:57:38.169Z,-0.60
2023-02-05T17:00:19.195Z,-0.58
2023-02-05T17:02:47.891Z,-0.65
2023-02-05T17:05:25.593Z,-0.61
2023-02-05T17:07:58.604Z,-0.58
2023-02-05T17:10:29.235Z,-0.65
2023-02-05T17:13:07.279Z,-0.73
2023-02-05T17:15:42.740Z,-0.70
2023-02-05T17:18:25.462Z,-0.75
2023-02-05T17:21:23.739Z,-0.76
2023-02-05T17:23:53.354Z,-0.73
2023-02-05T17:26:25.401Z,-0.70
2023-02-05T17:28:56.490Z,-0.78
2023-02-05T17:31:26.687Z,-0.81
2023-02-05T17:33:58.971Z,-0.82
2023-02-05T17:36:27.494Z,-0.90
2023-02-05T17:38:55.677Z,-0.94
2023-02-05T17:41:47.058Z,-0.84
2023-02-05T17:44:17.398Z,-0.78
2023-02-05T17:46:46.959Z,-0.79
2023-02-05T17:49:15.237Z,-0.80
2023-02-05T17:51:44.203Z,-0.81
2023-02-05T17:54:23.382Z,-0.90
2023-02-05T17:56:54.574Z,-0.85
2023-02-05T17:59:25.066Z,-0.82
2023-02-05T18:01:53.659Z,-0.79
2023-02-05T18:04:21.878Z,-0.72
2023-02-05T18:06:50.478Z,-0.84
2023-02-05T18:09:20.966Z,-0.81
2023-02-05T18:11:51.708Z,-0.91
2023-02-05T18:14:22.172Z,-0.93
2023-02-05T18:16:50.592Z,-0.96
2023-02-05T18:19:18.792Z,-0.94
2023-02-05T18:21:48.419Z,-0.94
2023-02-05T18:24:19.269Z,-0.86
2023-02-05T18:26:52.731Z,-0.84
2023-02-05T18:29:21.807Z,-0.79
2023-02-05T18:31:49.842Z,-0.83
2023-02-05T18:34:18.103Z,-0.84
2023-02-05T18:36:46.818Z,-0.84
2023-02-05T18:39:15.102Z,-0.87
2023-02-05T18:41:43.043Z,-0.84
2023-02-05T18:44:11.745Z,-0.86
2023-02-05T18:46:41.307Z,-0.90
2023-02-05T18:49:12.366Z,-0.87
2023-02-05T18:51:44.562Z,-0.82
2023-02-05T18:54:15.012Z,-0.88
2023-02-05T18:56:43.818Z,-0.92
2023-02-05T18:59:16.076Z,-0.93
2023-02-05T19:01:45.879Z,-0.99
2023-02-05T19:04:15.878Z,-1.02
2023-02-05T19:06:49.370Z,-1.05
2023-02-05T19:09:17.831Z,-0.95
2023-02-05T19:11:47.148Z,-0.94
2023-02-05T19:14:17.526Z,-0.89
2023-02-05T19:16:47.672Z,-0.94
2023-02-05T19:19:18.058Z,-0.92
2023-02-05T19:21:48.003Z,-0.93
2023-02-05T19:24:18.836Z,-0.95
2023-02-05T19:26:49.994Z,-0.94
2023-02-05T19:29:22.818Z,-0.95
2023-02-05T19:31:53.740Z,-0.95
2023-02-05T19:34:25.010Z,-0.90
2023-02-05T19:36:53.228Z,-0.91
2023-02-05T19:39:21.625Z,-0.91
2023-02-05T19:41:52.566Z,-0.89
2023-02-05T19:44:24.163Z,-0.93
2023-02-05T19:46:55.257Z,-0.86
2023-02-05T19:49:23.772Z,-0.80
2023-02-05T19:51:59.831Z,-0.91
2023-02-05T19:54:29.795Z,-0.89
2023-02-05T19:56:58.635Z,-0.94
2023-02-05T19:59:27.912Z,-0.91
2023-02-05T20:01:56.363Z,-0.92
2023-02-05T20:04:29.029Z,-0.93
2023-02-05T20:06:59.702Z,-0.97
2023-02-05T20:09:28.848Z,-0.95
2023-02-05T20:11:59.824Z,-1.00
2023-02-05T20:14:29.912Z,-0.96
2023-02-05T20:16:58.529Z,-0.95
2023-02-05T20:19:27.147Z,-1.03
2023-02-05T20:21:55.261Z,-0.98
2023-02-05T20:24:23.585Z,-0.97
2023-02-05T20:26:59.416Z,-0.94
2023-02-05T20:29:46.421Z,-0.96
2023-02-05T20:32:14.522Z,-0.93
2023-02-05T20:34:48.102Z,-1.05
2023-02-05T20:37:20.355Z,-1.20
2023-02-05T20:39:49.716Z,-1.14
2023-02-05T20:42:17.787Z,-1.25
2023-02-05T20:44:45.911Z,-1.28
2023-02-05T20:47:16.010Z,-1.29
2023-02-05T20:49:44.512Z,-1.28
2023-02-05T20:52:13.333Z,-1.29
2023-02-05T20:54:45.208Z,-1.25
2023-02-05T20:57:13.588Z,-1.24
2023-02-05T20:59:42.395Z,-1.23
2023-02-05T21:02:11.087Z,-1.24
2023-02-05T21:04:40.444Z,-1.26
2023-02-05T21:07:10.696Z,-1.22
2023-02-05T21:09:39.697Z,-1.27
2023-02-05T21:12:08.101Z,-1.30
2023-02-05T21:14:37.588Z,-1.31
2023-02-05T21:17:09.685Z,-1.33
2023-02-05T21:19:39.155Z,-1.31
2023-02-05T21:22:07.358Z,-1.29
2023-02-05T21:24:35.593Z,-1.32
2023-02-05T21:27:04.010Z,-1.32
2023-02-05T21:29:34.656Z,-1.32
2023-02-05T21:32:03.192Z,-1.27
2023-02-05T21:34:31.436Z,-1.33
2023-02-05T21:37:00.329Z,-1.34
2023-02-05T21:39:33.067Z,-1.28
2023-02-05T21:42:01.850Z,-1.19
2023-02-05T21:44:32.923Z,-1.16
2023-02-05T21:47:01.468Z,-1.18
2023-02-05T21:49:30.499Z,-1.19
2023-02-05T21:51:59.176Z,-1.21
2023-02-05T21:54:29.826Z,-1.19
2023-02-05T21:56:58.306Z,-1.25
2023-02-05T21:59:29.184Z,-1.28
2023-02-05T22:01:57.832Z,-1.21
2023-02-05T22:04:26.061Z,-1.26
2023-02-05T22:06:54.813Z,-1.22
2023-02-05T22:09:23.946Z,-1.19
2023-02-05T22:11:52.276Z,-1.20
2023-02-05T22:14:22.637Z,-1.13
2023-02-05T22:16:50.973Z,-1.11
2023-02-05T22:19:20.210Z,-1.09
2023-02-05T22:21:49.056Z,-1.18
2023-02-05T22:24:19.432Z,-1.13
2023-02-05T22:26:48.362Z,-1.15
2023-02-05T22:29:19.495Z,-1.08
2023-02-05T22:31:52.420Z,-1.04
2023-02-05T22:34:21.142Z,-1.04
2023-02-05T22:36:49.251Z,-1.15
2023-02-05T22:39:17.743Z,-1.14
2023-02-05T22:41:45.991Z,-1.17
2023-02-05T22:44:15.198Z,-1.15
2023-02-05T22:46:44.902Z,-1.16
2023-02-05T22:49:15.685Z,-1.27
2023-02-05T22:51:44.697Z,-1.14
2023-02-05T22:54:14.150Z,-1.20
2023-02-05T22:56:45.440Z,-1.25
2023-02-05T22:59:13.878Z,-1.24
2023-02-05T23:01:44.610Z,-1.27
2023-02-05T23:04:12.638Z,-1.28
2023-02-05T23:06:43.228Z,-1.34
2023-02-05T23:09:17.231Z,-1.38
2023-02-05T23:11:49.408Z,-1.45
2023-02-05T23:14:18.671Z,-1.39
2023-02-05T23:16:48.584Z,-1.42
2023-02-05T23:19:22.847Z,-1.46
2023-02-05T23:21:51.129Z,-1.43
2023-02-05T23:24:20.062Z,-1.46
2023-02-05T23:26:51.053Z,-1.49
2023-02-05T23:29:19.226Z,-1.52
2023-02-05T23:31:47.605Z,-1.49
2023-02-05T23:34:15.624Z,-1.48
2023-02-05T23:36:44.227Z,-1.45
2023-02-05T23:39:12.635Z,-1.44
2023-02-05T23:41:44.862Z,-1.45
2023-02-05T23:44:16.490Z,-1.55
2023-02-05T23:46:46.787Z,-1.51
2023-02-05T23:49:22.208Z,-1.53
2023-02-05T23:51:52.342Z,-1.59
2023-02-05T23:54:22.129Z,-1.66
2023-02-05T23:56:50.749Z,-1.59
2023-02-05T23:59:19.196Z,-1.53
